Time;durP1;ratioP1;P1;durP2;ratioP2;P2;SDS_P1;SDS_P2;PMS_P1;PMS_P2;Temp;Humidity;BMP_temperature;BMP_pressure;BME280_temperature;BME280_humidity;BME280_pressure;Samples;Min_cycle;Max_cycle;Signal;HPM_P1;HPM_P2
2023/12/02 00:01:33;;;;;;;;;;;-0.30;99.90;;;;;;5070138;28;19920;-93
2023/12/02 00:03:58;;;;;;;;;;;-0.10;99.90;;;;;;5063430;28;19952;-94
2023/12/02 00:06:24;;;;;;;;;;;-1.30;99.90;;;;;;5056268;28;20588;-93
2023/12/02 00:08:50;;;;;;;;;;;-1.30;99.90;;;;;;5071257;28;19920;-93
2023/12/02 00:11:15;;;;;;;;;;;-0.20;99.90;;;;;;5066400;28;19967;-93
2023/12/02 00:13:41;;;;;;;;;;;-1.20;99.90;;;;;;5053963;28;19928;-93
2023/12/02 00:16:07;;;;;;;;;;;-0.10;99.90;;;;;;5070833;28;19928;-93
2023/12/02 00:18:33;;;;;;;;;;;-1.30;99.90;;;;;;5035713;28;19998;-93
2023/12/02 00:20:58;;;;;;;;;;;-0.10;99.90;;;;;;5036392;28;20019;-93
2023/12/02 00:23:24;;;;;;;;;;;0.70;99.90;;;;;;5068949;28;20129;-94
2023/12/02 00:25:49;;;;;;;;;;;-2.50;99.90;;;;;;5052900;28;20030;-92
2023/12/02 00:28:15;;;;;;;;;;;-0.50;99.90;;;;;;5052039;28;20287;-94
2023/12/02 00:30:41;;;;;;;;;;;0.20;99.90;;;;;;5038678;28;19955;-94
2023/12/02 00:33:07;;;;;;;;;;;-1.30;99.90;;;;;;5044073;28;19928;-93
2023/12/02 00:35:33;;;;;;;;;;;-1.30;99.90;;;;;;5036115;28;19984;-93
2023/12/02 00:37:59;;;;;;;;;;;-1.40;99.90;;;;;;5062518;28;19966;-92
2023/12/02 00:40:24;;;;;;;;;;;-1.30;99.90;;;;;;5047412;28;20472;-93
2023/12/02 00:42:50;;;;;;;;;;;-1.10;99.90;;;;;;5055294;28;19920;-93
2023/12/02 00:45:15;;;;;;;;;;;-1.30;99.90;;;;;;5048080;28;19920;-93
2023/12/02 00:47:41;;;;;;;;;;;-1.30;99.90;;;;;;5036238;28;19925;-92
2023/12/02 00:50:07;;;;;;;;;;;-1.20;99.90;;;;;;5057182;28;19924;-93
2023/12/02 00:52:33;;;;;;;;;;;-1.30;99.90;;;;;;5062382;28;19921;-92
2023/12/02 00:54:59;;;;;;;;;;;-1.30;99.90;;;;;;5042191;28;20051;-93
2023/12/02 00:57:24;;;;;;;;;;;-1.20;99.90;;;;;;5057150;28;20228;-92
2023/12/02 00:59:50;;;;;;;;;;;-1.50;99.90;;;;;;5058211;28;19980;-93
2023/12/02 01:02:17;;;;;;;;;;;-0.20;99.90;;;;;;5056471;28;19921;-93
2023/12/02 01:04:43;;;;;;;;;;;-1.30;99.90;;;;;;5056240;28;19920;-93
2023/12/02 01:07:09;;;;;;;;;;;-1.30;99.90;;;;;;5054648;28;20294;-93
2023/12/02 01:09:34;;;;;;;;;;;-0.10;99.90;;;;;;5039506;28;19932;-93
2023/12/02 01:12:00;;;;;;;;;;;0.30;99.90;;;;;;5065363;28;19943;-93
2023/12/02 01:14:26;;;;;;;;;;;-1.30;99.90;;;;;;5055376;28;19929;-93
2023/12/02 01:16:52;;;;;;;;;;;-0.80;99.90;;;;;;5057641;28;19931;-93
2023/12/02 01:19:18;;;;;;;;;;;-1.30;99.90;;;;;;5060457;28;19925;-94
2023/12/02 01:21:46;;;;;;;;;;;-1.20;99.90;;;;;;5078017;28;20490;-93
2023/12/02 01:24:12;;;;;;;;;;;-1.30;99.90;;;;;;5026070;28;20047;-93
2023/12/02 01:26:37;;;;;;;;;;;-1.30;99.90;;;;;;5026808;28;20003;-93
2023/12/02 01:29:03;;;;;;;;;;;-1.80;99.90;;;;;;5019716;28;19970;-94
2023/12/02 01:31:29;;;;;;;;;;;-2.10;99.90;;;;;;5024443;28;19924;-93
2023/12/02 01:33:55;;;;;;;;;;;-1.30;99.90;;;;;;5009398;28;19924;-93
2023/12/02 01:36:20;;;;;;;;;;;0.20;99.90;;;;;;5022882;28;20012;-93
2023/12/02 01:38:46;;;;;;;;;;;-0.50;99.90;;;;;;5023660;28;19925;-94
2023/12/02 01:41:12;;;;;;;;;;;-1.30;99.90;;;;;;5024075;28;20461;-94
2023/12/02 01:43:37;;;;;;;;;;;-1.30;99.90;;;;;;5021612;28;19972;-94
2023/12/02 01:46:03;;;;;;;;;;;0.00;99.90;;;;;;5039342;28;19925;-93
2023/12/02 01:48:30;;;;;;;;;;;-1.30;99.90;;;;;;5007527;28;20387;-93
2023/12/02 01:50:56;;;;;;;;;;;-1.20;99.90;;;;;;5024446;28;20172;-93
2023/12/02 01:53:22;;;;;;;;;;;-0.30;99.90;;;;;;5019640;28;19924;-93
2023/12/02 01:55:48;;;;;;;;;;;-1.20;99.90;;;;;;5019458;28;19970;-93
2023/12/02 01:58:13;;;;;;;;;;;-0.30;99.90;;;;;;4998822;28;19929;-92
2023/12/02 02:00:39;;;;;;;;;;;-0.10;99.90;;;;;;5021075;28;19921;-93
2023/12/02 02:03:05;;;;;;;;;;;-0.10;99.90;;;;;;5026898;28;19966;-93
2023/12/02 02:05:30;;;;;;;;;;;-1.20;99.90;;;;;;5026006;28;20003;-93
2023/12/02 02:07:56;;;;;;;;;;;0.00;99.90;;;;;;5029588;28;19920;-93
2023/12/02 02:10:22;;;;;;;;;;;-1.20;99.90;;;;;;5029320;28;19925;-93
2023/12/02 02:12:48;;;;;;;;;;;0.00;99.90;;;;;;5028530;28;20348;-93
2023/12/02 02:15:13;;;;;;;;;;;-1.10;99.90;;;;;;5023535;28;19932;-93
2023/12/02 02:17:39;;;;;;;;;;;-1.20;99.90;;;;;;5027232;28;19957;-94
2023/12/02 02:20:05;;;;;;;;;;;-0.70;99.90;;;;;;5005622;28;19925;-93
2023/12/02 02:22:31;;;;;;;;;;;-1.30;99.90;;;;;;5030661;28;19935;-93
2023/12/02 02:24:57;;;;;;;;;;;-1.30;99.90;;;;;;5021976;28;19972;-93
2023/12/02 02:27:22;;;;;;;;;;;0.50;99.90;;;;;;5018803;28;19963;-93
2023/12/02 02:29:48;;;;;;;;;;;0.40;99.90;;;;;;5014279;28;19987;-93
2023/12/02 02:32:14;;;;;;;;;;;-1.30;99.90;;;;;;5028514;28;19932;-93
2023/12/02 02:34:40;;;;;;;;;;;-1.20;99.90;;;;;;5022072;28;19974;-93
2023/12/02 02:37:06;;;;;;;;;;;0.20;99.90;;;;;;5020725;28;19950;-93
2023/12/02 02:39:31;;;;;;;;;;;-1.10;99.90;;;;;;5006608;28;19920;-93
2023/12/02 02:41:57;;;;;;;;;;;0.40;99.90;;;;;;5020737;28;19925;-93
2023/12/02 02:44:23;;;;;;;;;;;-0.30;99.90;;;;;;5004738;28;19971;-93
2023/12/02 02:46:48;;;;;;;;;;;0.10;99.90;;;;;;5018838;28;19929;-93
2023/12/02 02:49:14;;;;;;;;;;;-0.80;99.90;;;;;;4995946;28;19921;-93
2023/12/02 02:51:40;;;;;;;;;;;0.40;99.90;;;;;;5023642;28;20003;-93
2023/12/02 02:54:05;;;;;;;;;;;-0.40;99.90;;;;;;5004940;28;19928;-93
2023/12/02 02:56:31;;;;;;;;;;;0.30;99.90;;;;;;5021011;28;20315;-93
2023/12/02 02:58:57;;;;;;;;;;;-0.30;99.90;;;;;;5006238;28;19924;-92
2023/12/02 03:01:23;;;;;;;;;;;-1.30;99.90;;;;;;5021470;28;20394;-93
2023/12/02 03:03:48;;;;;;;;;;;-1.10;99.90;;;;;;5021748;28;20023;-93
2023/12/02 03:06:15;;;;;;;;;;;0.00;99.90;;;;;;5010822;28;20006;-94
2023/12/02 03:08:40;;;;;;;;;;;-1.30;99.90;;;;;;5023212;28;19943;-93
2023/12/02 03:11:06;;;;;;;;;;;0.50;99.90;;;;;;5013098;28;19921;-93
2023/12/02 03:13:32;;;;;;;;;;;-1.20;99.90;;;;;;5006014;28;19921;-93
2023/12/02 03:15:57;;;;;;;;;;;0.30;99.90;;;;;;5021135;28;19951;-93
2023/12/02 03:18:23;;;;;;;;;;;-0.40;99.90;;;;;;5015771;28;19920;-93
2023/12/02 03:20:49;;;;;;;;;;;-1.30;99.90;;;;;;5001602;28;19932;-93
2023/12/02 03:23:15;;;;;;;;;;;0.20;99.90;;;;;;5027620;28;20127;-93
2023/12/02 03:25:40;;;;;;;;;;;-1.20;99.90;;;;;;5050562;28;19959;-93
2023/12/02 03:28:06;;;;;;;;;;;-1.20;99.90;;;;;;5056723;28;20426;-93
2023/12/02 03:30:32;;;;;;;;;;;-1.20;99.90;;;;;;5050176;28;19931;-93
2023/12/02 03:32:58;;;;;;;;;;;-1.00;99.90;;;;;;5027558;28;19967;-93
2023/12/02 03:35:24;;;;;;;;;;;-0.30;99.90;;;;;;5075404;28;20371;-93
2023/12/02 03:37:50;;;;;;;;;;;-1.20;99.90;;;;;;5061697;28;20019;-94
2023/12/02 03:40:15;;;;;;;;;;;-1.20;99.90;;;;;;5062287;28;19921;-93
2023/12/02 03:42:41;;;;;;;;;;;-1.20;99.90;;;;;;5060781;28;19974;-93
2023/12/02 03:45:08;;;;;;;;;;;0.10;99.90;;;;;;5045269;28;20015;-93
2023/12/02 03:47:33;;;;;;;;;;;-1.20;99.90;;;;;;5077924;28;19967;-93
2023/12/02 03:49:59;;;;;;;;;;;0.20;99.90;;;;;;5059093;28;20376;-93
2023/12/02 03:52:25;;;;;;;;;;;-0.10;99.90;;;;;;5040604;28;19920;-93
2023/12/02 03:54:51;;;;;;;;;;;-1.60;99.90;;;;;;5079946;28;19975;-93
2023/12/02 03:57:17;;;;;;;;;;;0.00;99.90;;;;;;5041197;28;20023;-93
2023/12/02 03:59:42;;;;;;;;;;;-2.60;99.90;;;;;;5054292;28;19940;-93
2023/12/02 04:02:08;;;;;;;;;;;-1.20;99.90;;;;;;5063351;28;19986;-92
2023/12/02 04:04:34;;;;;;;;;;;-1.40;99.90;;;;;;5060665;28;19931;-93
2023/12/02 04:06:59;;;;;;;;;;;0.20;99.90;;;;;;5059688;28;19960;-93
2023/12/02 04:09:26;;;;;;;;;;;-1.40;99.90;;;;;;5046471;28;19925;-93
2023/12/02 04:11:52;;;;;;;;;;;-2.20;99.90;;;;;;5047557;28;20004;-93
2023/12/02 04:14:17;;;;;;;;;;;-1.40;99.90;;;;;;5058324;28;19932;-93
2023/12/02 04:16:43;;;;;;;;;;;-0.80;99.90;;;;;;5074677;28;20307;-94
2023/12/02 04:19:09;;;;;;;;;;;-0.20;99.90;;;;;;5057348;28;19920;-93
2023/12/02 04:21:35;;;;;;;;;;;-2.90;99.90;;;;;;5054627;28;19974;-93
2023/12/02 04:24:02;;;;;;;;;;;-1.40;99.90;;;;;;5058751;28;19928;-94
2023/12/02 04:26:27;;;;;;;;;;;-1.30;99.90;;;;;;5058868;28;19920;-93
2023/12/02 04:28:53;;;;;;;;;;;0.10;99.90;;;;;;5067779;28;20287;-94
2023/12/02 04:31:18;;;;;;;;;;;-0.50;99.90;;;;;;5051868;28;20023;-93
2023/12/02 04:33:44;;;;;;;;;;;-1.50;99.90;;;;;;5057546;28;19932;-94
2023/12/02 04:36:10;;;;;;;;;;;-0.10;99.90;;;;;;5049831;28;19925;-93
2023/12/02 04:38:36;;;;;;;;;;;-1.40;99.90;;;;;;5059228;28;19927;-93
2023/12/02 04:41:01;;;;;;;;;;;-0.30;99.90;;;;;;5063816;28;19934;-92
2023/12/02 04:43:30;;;;;;;;;;;-1.50;99.90;;;;;;5073469;28;19920;-95
2023/12/02 04:45:56;;;;;;;;;;;-1.50;99.90;;;;;;5054835;28;19967;-93
2023/12/02 04:48:22;;;;;;;;;;;-1.50;99.90;;;;;;5061745;28;20485;-92
2023/12/02 04:50:48;;;;;;;;;;;-1.50;99.90;;;;;;5052241;28;20320;-93
2023/12/02 04:53:14;;;;;;;;;;;-0.50;99.90;;;;;;5040509;28;19957;-93
2023/12/02 04:55:40;;;;;;;;;;;-1.50;99.90;;;;;;5067772;28;20017;-93
2023/12/02 04:58:06;;;;;;;;;;;-1.40;99.90;;;;;;5030740;28;19978;-93
2023/12/02 05:00:32;;;;;;;;;;;-0.30;99.90;;;;;;5043207;28;19924;-94
2023/12/02 05:02:58;;;;;;;;;;;-1.50;99.90;;;;;;5042160;28;19947;-93
2023/12/02 05:05:23;;;;;;;;;;;-1.40;99.90;;;;;;5044193;28;19921;-93
2023/12/02 05:07:49;;;;;;;;;;;-1.50;99.90;;;;;;5060850;28;19921;-94
2023/12/02 05:10:15;;;;;;;;;;;-1.50;99.90;;;;;;5075056;28;19959;-93
2023/12/02 05:12:40;;;;;;;;;;;0.00;99.90;;;;;;5059234;28;19924;-93
2023/12/02 05:15:09;;;;;;;;;;;-0.20;99.90;;;;;;5049771;28;20039;-93
2023/12/02 05:17:34;;;;;;;;;;;-1.40;99.90;;;;;;5061753;28;19931;-93
2023/12/02 05:20:00;;;;;;;;;;;-0.20;99.90;;;;;;5056560;28;19920;-93
2023/12/02 05:22:26;;;;;;;;;;;-1.40;99.90;;;;;;5055719;28;19921;-94
2023/12/02 05:24:52;;;;;;;;;;;-2.60;99.90;;;;;;5077281;28;20020;-93
2023/12/02 05:27:18;;;;;;;;;;;-2.50;99.90;;;;;;5060647;28;19920;-93
2023/12/02 05:29:44;;;;;;;;;;;-0.60;99.90;;;;;;5059907;28;20052;-94
2023/12/02 05:32:09;;;;;;;;;;;-2.30;99.90;;;;;;5041672;28;19921;-93
2023/12/02 05:34:35;;;;;;;;;;;0.30;99.90;;;;;;5040077;28;20023;-93
2023/12/02 05:37:01;;;;;;;;;;;-1.60;99.90;;;;;;5044599;28;19952;-92
2023/12/02 05:39:26;;;;;;;;;;;-1.60;99.90;;;;;;5036185;28;19920;-93
2023/12/02 05:41:52;;;;;;;;;;;0.70;99.90;;;;;;5056563;28;19924;-93
2023/12/02 05:44:19;;;;;;;;;;;-1.50;99.90;;;;;;5052112;28;19924;-93
2023/12/02 05:46:44;;;;;;;;;;;-1.50;99.90;;;;;;5048920;28;20143;-93
2023/12/02 05:49:10;;;;;;;;;;;-1.60;99.90;;;;;;5057499;28;19942;-92
2023/12/02 05:51:39;;;;;;;;;;;-0.30;99.90;;;;;;5073542;28;19927;-94
2023/12/02 05:54:08;;;;;;;;;;;-1.40;99.90;;;;;;5040002;28;20347;-93
2023/12/02 05:56:34;;;;;;;;;;;-1.50;99.90;;;;;;5042235;28;19978;-93
2023/12/02 05:58:59;;;;;;;;;;;0.30;99.90;;;;;;5056461;28;19921;-93
2023/12/02 06:01:25;;;;;;;;;;;-1.60;99.90;;;;;;5059143;28;19920;-94
2023/12/02 06:03:51;;;;;;;;;;;-0.90;99.90;;;;;;5058034;28;19924;-93
2023/12/02 06:06:17;;;;;;;;;;;-0.50;99.90;;;;;;5061308;28;19920;-94
2023/12/02 06:08:43;;;;;;;;;;;-0.30;99.90;;;;;;5062368;28;19935;-94
2023/12/02 06:11:08;;;;;;;;;;;-1.60;99.90;;;;;;5060350;28;20078;-93
2023/12/02 06:13:34;;;;;;;;;;;-1.70;99.90;;;;;;5057307;28;19920;-94
2023/12/02 06:16:00;;;;;;;;;;;-3.00;99.90;;;;;;5071134;28;20448;-94
2023/12/02 06:18:26;;;;;;;;;;;-1.60;99.90;;;;;;5043581;28;19920;-94
2023/12/02 06:20:52;;;;;;;;;;;-0.40;99.90;;;;;;5060955;28;19924;-93
2023/12/02 06:23:18;;;;;;;;;;;-0.20;99.90;;;;;;5057073;28;19925;-93
2023/12/02 06:25:43;;;;;;;;;;;-1.40;99.90;;;;;;5019193;28;19921;-93
2023/12/02 06:28:09;;;;;;;;;;;-1.00;99.90;;;;;;5044497;28;19920;-94
2023/12/02 06:30:35;;;;;;;;;;;-1.60;99.90;;;;;;5044480;28;19927;-94
2023/12/02 06:33:01;;;;;;;;;;;0.50;99.90;;;;;;5046041;28;19921;-94
2023/12/02 06:35:26;;;;;;;;;;;-1.70;99.90;;;;;;5036054;28;19929;-93
2023/12/02 06:37:52;;;;;;;;;;;-0.50;99.90;;;;;;5029922;28;20363;-93
2023/12/02 06:40:18;;;;;;;;;;;-1.30;99.90;;;;;;5044132;28;19985;-94
2023/12/02 06:42:44;;;;;;;;;;;-1.50;99.90;;;;;;5044173;28;20256;-94
2023/12/02 06:45:09;;;;;;;;;;;-0.10;99.90;;;;;;5040843;28;19927;-93
2023/12/02 06:47:36;;;;;;;;;;;-1.50;99.90;;;;;;5048225;28;19920;-94
2023/12/02 06:50:03;;;;;;;;;;;-0.90;99.90;;;;;;5047132;28;20319;-93
2023/12/02 06:52:29;;;;;;;;;;;-1.90;99.90;;;;;;5044188;28;19928;-94
2023/12/02 06:54:55;;;;;;;;;;;-1.50;99.90;;;;;;5047856;28;19951;-93
2023/12/02 06:57:20;;;;;;;;;;;-1.40;99.90;;;;;;5045972;28;19921;-93
2023/12/02 06:59:46;;;;;;;;;;;-1.50;99.90;;;;;;5037252;28;20292;-94
2023/12/02 07:02:12;;;;;;;;;;;-0.40;99.90;;;;;;5043001;28;19924;-94
2023/12/02 07:04:38;;;;;;;;;;;-1.40;99.90;;;;;;5022746;28;19970;-93
2023/12/02 07:07:04;;;;;;;;;;;-1.50;99.90;;;;;;5056286;28;19920;-93
2023/12/02 07:09:29;;;;;;;;;;;-1.50;99.90;;;;;;5032385;28;19921;-93
2023/12/02 07:11:55;;;;;;;;;;;-1.50;99.90;;;;;;5028219;28;20199;-94
2023/12/02 07:14:21;;;;;;;;;;;-2.60;99.90;;;;;;5025565;28;20011;-93
2023/12/02 07:16:47;;;;;;;;;;;-1.70;99.90;;;;;;5054070;28;19925;-94
2023/12/02 07:19:13;;;;;;;;;;;-0.20;99.90;;;;;;5038814;28;19920;-93
2023/12/02 07:21:39;;;;;;;;;;;-1.50;99.90;;;;;;5039685;28;19921;-94
2023/12/02 07:24:05;;;;;;;;;;;-1.50;99.90;;;;;;5038685;28;19924;-94
2023/12/02 07:26:30;;;;;;;;;;;-1.30;99.90;;;;;;5025122;28;19924;-93
2023/12/02 07:28:56;;;;;;;;;;;-1.50;99.90;;;;;;5021897;28;19968;-94
2023/12/02 07:31:22;;;;;;;;;;;-1.50;99.90;;;;;;5006721;28;19920;-94
2023/12/02 07:33:48;;;;;;;;;;;-1.50;99.90;;;;;;5005354;28;19935;-94
2023/12/02 07:36:14;;;;;;;;;;;-1.50;99.90;;;;;;5003682;28;19944;-94
2023/12/02 07:38:40;;;;;;;;;;;0.00;99.90;;;;;;5018330;28;20344;-94
2023/12/02 07:41:07;;;;;;;;;;;-1.10;99.90;;;;;;5007474;28;19920;-95
2023/12/02 07:43:33;;;;;;;;;;;-1.30;99.90;;;;;;5024033;28;19925;-93
2023/12/02 07:45:59;;;;;;;;;;;-1.50;99.90;;;;;;5028958;28;20000;-92
2023/12/02 07:48:25;;;;;;;;;;;-1.50;99.90;;;;;;5006998;28;19921;-93
2023/12/02 07:50:51;;;;;;;;;;;-1.50;99.90;;;;;;4997910;28;20330;-93
2023/12/02 07:53:17;;;;;;;;;;;-1.50;99.90;;;;;;5001233;28;19928;-92
2023/12/02 07:55:42;;;;;;;;;;;-1.50;99.90;;;;;;5015977;28;19968;-93
2023/12/02 07:58:08;;;;;;;;;;;-1.40;99.90;;;;;;4997682;28;19925;-93
2023/12/02 08:00:34;;;;;;;;;;;-1.50;99.90;;;;;;5016320;28;20020;-93
2023/12/02 08:03:00;;;;;;;;;;;-0.30;99.90;;;;;;5001279;28;19928;-93
2023/12/02 08:05:26;;;;;;;;;;;-0.90;99.90;;;;;;5015519;28;19921;-92
2023/12/02 08:07:51;;;;;;;;;;;-1.40;99.90;;;;;;5010465;28;20020;-92
2023/12/02 08:10:17;;;;;;;;;;;-0.70;99.90;;;;;;5002622;28;19932;-92
2023/12/02 08:12:43;;;;;;;;;;;-0.80;99.90;;;;;;5007672;28;19928;-93
2023/12/02 08:15:09;;;;;;;;;;;-0.40;99.90;;;;;;4998396;28;20324;-92
2023/12/02 08:17:35;;;;;;;;;;;0.20;99.90;;;;;;5026399;28;19921;-92
2023/12/02 08:20:01;;;;;;;;;;;-0.20;99.90;;;;;;4998525;28;20411;-90
2023/12/02 08:22:27;;;;;;;;;;;-1.30;99.90;;;;;;5011471;28;19928;-91
2023/12/02 08:24:53;;;;;;;;;;;-1.30;99.90;;;;;;5001914;28;19929;-95
2023/12/02 08:27:18;;;;;;;;;;;-1.30;99.90;;;;;;5000559;28;19935;-94
2023/12/02 08:29:44;;;;;;;;;;;-0.90;99.90;;;;;;5009581;28;19932;-95
2023/12/02 08:32:10;;;;;;;;;;;-1.20;99.90;;;;;;5010819;28;19928;-96
2023/12/02 08:34:35;;;;;;;;;;;-1.20;99.90;;;;;;5019968;28;19982;-95
2023/12/02 08:37:01;;;;;;;;;;;-1.20;99.90;;;;;;5014183;28;20048;-90
2023/12/02 08:39:27;;;;;;;;;;;0.00;99.90;;;;;;5013612;28;20372;-93
2023/12/02 08:41:53;;;;;;;;;;;0.40;99.90;;;;;;5002198;28;19978;-94
2023/12/02 08:44:18;;;;;;;;;;;0.40;99.90;;;;;;5002929;28;20007;-95
2023/12/02 08:46:44;;;;;;;;;;;0.40;99.90;;;;;;5017264;28;19932;-96
2023/12/02 08:49:10;;;;;;;;;;;-0.60;99.90;;;;;;5017256;28;19921;-95
2023/12/02 08:51:35;;;;;;;;;;;0.30;99.90;;;;;;5031689;28;19932;-95
2023/12/02 09:07:54;;;;;;;;;;;-0.70;99.90;;;;;;4872084;29;19956;-94
2023/12/02 09:13:54;;;;;;;;;;;-0.60;99.90;;;;;;4888562;29;20800;-92
2023/12/02 09:16:22;;;;;;;;;;;-0.60;99.90;;;;;;4888799;29;20370;-90
2023/12/02 09:18:47;;;;;;;;;;;-0.60;99.90;;;;;;4901692;28;19931;-92
2023/12/02 09:21:47;;;;;;;;;;;-0.40;99.90;;;;;;4984942;28;19929;-93
2023/12/02 09:24:32;;;;;;;;;;;1.00;99.90;;;;;;5002192;28;19937;-91
2023/12/02 09:26:59;;;;;;;;;;;-0.50;99.90;;;;;;4994236;28;19968;-93
2023/12/02 09:29:31;;;;;;;;;;;-0.50;99.90;;;;;;4991936;28;20142;-93
2023/12/02 09:31:56;;;;;;;;;;;-0.40;99.90;;;;;;4991169;28;19925;-90
2023/12/02 09:34:54;;;;;;;;;;;-0.40;99.90;;;;;;4984529;28;19925;-93
2023/12/02 09:37:41;;;;;;;;;;;-0.40;99.90;;;;;;4991398;28;19936;-94
2023/12/02 09:40:40;;;;;;;;;;;-1.10;99.90;;;;;;5000950;28;19928;-93
2023/12/02 09:43:22;;;;;;;;;;;-0.30;99.90;;;;;;5001407;28;19955;-93
2023/12/02 09:45:54;;;;;;;;;;;-0.20;99.90;;;;;;5025124;28;19924;-91
2023/12/02 09:48:23;;;;;;;;;;;-0.10;99.90;;;;;;5051362;28;20003;-91
2023/12/02 09:50:56;;;;;;;;;;;-0.20;99.90;;;;;;5028448;28;20370;-91
2023/12/02 09:53:31;;;;;;;;;;;-0.20;99.90;;;;;;5034725;28;20761;-92
2023/12/02 09:55:59;;;;;;;;;;;-0.10;99.90;;;;;;5035584;28;19925;-92
2023/12/02 09:58:33;;;;;;;;;;;0.60;99.90;;;;;;5037502;28;19925;-93
2023/12/02 10:01:16;;;;;;;;;;;0.00;99.90;;;;;;5048210;28;19924;-92
2023/12/02 10:04:02;;;;;;;;;;;0.00;99.90;;;;;;5036640;28;20402;-92
2023/12/02 10:06:44;;;;;;;;;;;0.10;99.90;;;;;;5017737;28;19988;-92
2023/12/02 10:09:19;;;;;;;;;;;0.20;99.90;;;;;;5049411;28;19927;-92
2023/12/02 10:12:00;;;;;;;;;;;0.20;99.90;;;;;;5035586;28;19921;-92
2023/12/02 10:15:01;;;;;;;;;;;0.20;99.90;;;;;;5042958;28;19925;-91
2023/12/02 10:17:28;;;;;;;;;;;0.30;99.90;;;;;;5049490;28;19924;-92
2023/12/02 10:20:00;;;;;;;;;;;0.30;99.90;;;;;;5034433;28;19920;-92
2023/12/02 10:22:28;;;;;;;;;;;0.40;99.90;;;;;;5035394;28;19920;-92
2023/12/02 10:25:03;;;;;;;;;;;0.30;99.90;;;;;;5039279;28;19924;-92
2023/12/02 10:27:29;;;;;;;;;;;0.40;99.90;;;;;;5038224;28;19920;-91
2023/12/02 10:30:17;;;;;;;;;;;1.20;99.90;;;;;;5038298;28;19925;-92
2023/12/02 10:32:51;;;;;;;;;;;0.50;99.90;;;;;;5032332;28;19931;-91
2023/12/02 10:35:18;;;;;;;;;;;0.60;99.90;;;;;;5051339;28;20372;-91
2023/12/02 10:37:44;;;;;;;;;;;0.70;99.90;;;;;;5039022;28;20319;-92
2023/12/02 10:40:12;;;;;;;;;;;0.80;99.90;;;;;;5034826;28;20022;-92
2023/12/02 10:42:56;;;;;;;;;;;0.80;99.90;;;;;;5047704;28;19924;-90
2023/12/02 10:45:25;;;;;;;;;;;0.90;99.90;;;;;;5033002;28;19924;-92
2023/12/02 10:47:51;;;;;;;;;;;0.90;99.90;;;;;;5038138;28;20313;-92
2023/12/02 10:50:17;;;;;;;;;;;1.30;99.90;;;;;;5021019;28;20010;-92
2023/12/02 10:52:56;;;;;;;;;;;1.10;99.90;;;;;;5021391;28;20426;-89
2023/12/02 10:55:22;;;;;;;;;;;1.10;99.90;;;;;;5034915;28;20337;-87
2023/12/02 10:57:51;;;;;;;;;;;1.10;99.90;;;;;;5017699;28;19928;-88
2023/12/02 11:00:17;;;;;;;;;;;1.10;99.90;;;;;;5038004;28;20391;-89
2023/12/02 11:02:57;;;;;;;;;;;1.20;99.90;;;;;;5036928;28;19967;-89
2023/12/02 11:05:25;;;;;;;;;;;1.20;99.90;;;;;;5041350;28;19930;-88
2023/12/02 11:07:51;;;;;;;;;;;1.10;99.90;;;;;;5047792;28;20003;-88
2023/12/02 11:10:21;;;;;;;;;;;1.40;99.90;;;;;;5061155;28;19963;-88
2023/12/02 11:12:50;;;;;;;;;;;1.10;99.90;;;;;;5038823;28;19925;-88
2023/12/02 11:15:19;;;;;;;;;;;1.10;99.90;;;;;;5035450;28;19924;-88
2023/12/02 11:17:55;;;;;;;;;;;1.10;99.90;;;;;;5023229;28;19924;-86
2023/12/02 11:20:22;;;;;;;;;;;1.10;99.90;;;;;;5018867;28;20019;-88
2023/12/02 11:23:03;;;;;;;;;;;1.10;99.90;;;;;;5047155;28;19928;-86
2023/12/02 11:26:01;;;;;;;;;;;1.00;99.90;;;;;;5052183;28;19963;-87
2023/12/02 11:28:37;;;;;;;;;;;1.10;99.90;;;;;;5028917;28;20590;-86
2023/12/02 11:31:11;;;;;;;;;;;1.10;99.90;;;;;;5040550;28;19936;-86
2023/12/02 11:33:40;;;;;;;;;;;1.20;99.90;;;;;;5073824;28;19924;-87
2023/12/02 11:36:09;;;;;;;;;;;1.20;99.90;;;;;;5041343;28;19924;-88
2023/12/02 11:38:38;;;;;;;;;;;1.30;99.90;;;;;;5064859;28;20062;-88
2023/12/02 11:41:13;;;;;;;;;;;1.30;99.90;;;;;;5051019;28;20363;-88
2023/12/02 11:43:58;;;;;;;;;;;1.30;99.90;;;;;;5049953;28;19927;-87
2023/12/02 11:46:28;;;;;;;;;;;1.30;99.90;;;;;;5041349;28;19940;-88
2023/12/02 11:49:12;;;;;;;;;;;1.30;99.90;;;;;;5063151;28;19927;-88
2023/12/02 11:51:41;;;;;;;;;;;1.30;99.90;;;;;;5040093;28;20437;-88
2023/12/02 11:54:07;;;;;;;;;;;1.30;99.90;;;;;;5044262;28;20010;-88
2023/12/02 11:56:33;;;;;;;;;;;1.30;99.90;;;;;;5040553;28;20486;-87
2023/12/02 11:59:13;;;;;;;;;;;2.30;99.90;;;;;;5048446;28;20633;-88
2023/12/02 12:01:57;;;;;;;;;;;1.20;99.90;;;;;;5057352;28;19986;-87
2023/12/02 12:04:46;;;;;;;;;;;1.20;99.90;;;;;;5040318;28;19925;-86
2023/12/02 12:07:15;;;;;;;;;;;1.10;99.90;;;;;;5003529;28;20247;-88
2023/12/02 12:09:44;;;;;;;;;;;1.10;99.90;;;;;;5061560;28;20012;-88
2023/12/02 12:12:10;;;;;;;;;;;1.00;99.90;;;;;;5067061;28;20003;-90
2023/12/02 12:14:37;;;;;;;;;;;1.50;99.90;;;;;;5045375;28;19963;-89
2023/12/02 12:17:03;;;;;;;;;;;1.00;99.90;;;;;;5060546;28;19995;-89
2023/12/02 12:19:28;;;;;;;;;;;1.00;99.90;;;;;;5032913;28;20371;-88
2023/12/02 12:21:55;;;;;;;;;;;0.90;99.90;;;;;;5024837;28;19952;-88
2023/12/02 12:24:21;;;;;;;;;;;0.90;99.90;;;;;;5051761;28;20003;-89
2023/12/02 12:26:46;;;;;;;;;;;0.90;99.90;;;;;;5045342;28;20019;-89
2023/12/02 12:29:12;;;;;;;;;;;0.90;99.90;;;;;;5032687;28;20027;-89
2023/12/02 12:31:38;;;;;;;;;;;0.90;99.90;;;;;;5040654;28;19924;-89
2023/12/02 12:34:09;;;;;;;;;;;0.90;99.90;;;;;;5015208;28;20426;-89
2023/12/02 12:36:35;;;;;;;;;;;1.00;99.90;;;;;;5044453;28;19924;-89
2023/12/02 12:39:01;;;;;;;;;;;1.10;99.90;;;;;;5031467;28;20036;-88
2023/12/02 12:41:30;;;;;;;;;;;1.20;99.90;;;;;;5046884;28;19967;-89
2023/12/02 12:43:57;;;;;;;;;;;1.20;99.90;;;;;;5051966;28;19968;-88
2023/12/02 12:46:29;;;;;;;;;;;1.30;99.90;;;;;;5054783;28;19921;-90
2023/12/02 12:48:55;;;;;;;;;;;1.30;99.90;;;;;;5041710;28;19924;-90
2023/12/02 12:51:25;;;;;;;;;;;1.40;99.90;;;;;;5050646;28;19947;-88
2023/12/02 12:53:57;;;;;;;;;;;1.40;99.90;;;;;;5051565;28;19924;-89
2023/12/02 12:56:27;;;;;;;;;;;1.40;99.90;;;;;;5046345;28;20011;-93
2023/12/02 12:58:58;;;;;;;;;;;1.40;99.90;;;;;;5052269;28;19929;-92
2023/12/02 13:01:27;;;;;;;;;;;1.50;99.90;;;;;;5048934;28;19921;-92
2023/12/02 13:03:58;;;;;;;;;;;2.80;99.90;;;;;;5070644;28;20424;-91
2023/12/02 13:06:36;;;;;;;;;;;2.80;99.90;;;;;;5045261;28;20367;-92
2023/12/02 13:09:04;;;;;;;;;;;1.60;99.90;;;;;;5048968;28;20376;-91
2023/12/02 13:11:31;;;;;;;;;;;1.60;99.90;;;;;;5041398;28;20001;-92
2023/12/02 13:14:04;;;;;;;;;;;1.60;99.90;;;;;;5068954;28;20400;-89
2023/12/02 13:16:30;;;;;;;;;;;1.70;99.90;;;;;;5049782;28;19925;-90
2023/12/02 13:18:58;;;;;;;;;;;1.80;99.90;;;;;;5047887;28;20283;-89
2023/12/02 13:21:24;;;;;;;;;;;2.70;99.90;;;;;;5053926;28;19921;-89
2023/12/02 13:23:52;;;;;;;;;;;1.80;99.90;;;;;;5026043;28;20453;-89
2023/12/02 13:26:23;;;;;;;;;;;1.80;99.90;;;;;;5033368;28;20295;-88
2023/12/02 13:28:50;;;;;;;;;;;1.90;99.90;;;;;;5023863;28;19978;-89
2023/12/02 13:31:19;;;;;;;;;;;1.90;99.90;;;;;;5061183;28;19920;-88
2023/12/02 13:34:00;;;;;;;;;;;2.90;99.90;;;;;;5021362;28;19929;-89
2023/12/02 13:36:32;;;;;;;;;;;1.90;99.90;;;;;;5037344;28;20310;-90
2023/12/02 13:39:00;;;;;;;;;;;2.30;99.90;;;;;;5042453;28;19925;-90
2023/12/02 13:41:52;;;;;;;;;;;2.00;99.90;;;;;;5032448;28;19920;-89
2023/12/02 13:44:21;;;;;;;;;;;2.00;99.90;;;;;;5039277;28;20537;-88
2023/12/02 13:46:49;;;;;;;;;;;2.00;99.90;;;;;;5025162;28;19932;-89
2023/12/02 13:49:15;;;;;;;;;;;2.00;99.90;;;;;;5025385;28;19921;-89
2023/12/02 13:51:42;;;;;;;;;;;2.00;99.90;;;;;;5038588;28;20296;-89
2023/12/02 13:54:37;;;;;;;;;;;1.90;99.90;;;;;;5027042;28;19932;-89
2023/12/02 13:57:23;;;;;;;;;;;1.90;99.90;;;;;;5003687;28;20494;-89
2023/12/02 13:59:52;;;;;;;;;;;1.90;99.90;;;;;;5015758;28;19921;-90
2023/12/02 14:02:37;;;;;;;;;;;1.90;99.90;;;;;;5026247;28;20407;-89
2023/12/02 14:05:11;;;;;;;;;;;1.90;99.90;;;;;;5035505;28;19951;-89
2023/12/02 14:07:45;;;;;;;;;;;1.90;99.90;;;;;;5027128;28;19975;-90
2023/12/02 14:10:13;;;;;;;;;;;2.30;99.90;;;;;;5025625;28;19920;-90
2023/12/02 14:12:47;;;;;;;;;;;2.00;99.90;;;;;;5027176;28;20334;-90
2023/12/02 14:15:25;;;;;;;;;;;2.00;99.90;;;;;;5015083;28;19937;-90
2023/12/02 14:18:04;;;;;;;;;;;2.00;99.90;;;;;;5020066;28;19925;-90
2023/12/02 14:20:50;;;;;;;;;;;2.00;99.90;;;;;;5028571;28;19936;-89
2023/12/02 14:23:34;;;;;;;;;;;2.00;99.90;;;;;;5017904;28;19925;-90
2023/12/02 14:26:13;;;;;;;;;;;2.00;99.90;;;;;;5014358;28;20873;-89
2023/12/02 14:28:57;;;;;;;;;;;1.90;99.90;;;;;;5014056;28;19921;-89
2023/12/02 14:31:46;;;;;;;;;;;1.40;99.90;;;;;;5016784;28;19924;-89
2023/12/02 14:34:12;;;;;;;;;;;1.90;99.90;;;;;;5013849;28;20002;-89
2023/12/02 14:36:45;;;;;;;;;;;1.80;99.90;;;;;;5031571;28;20364;-89
2023/12/02 14:39:31;;;;;;;;;;;1.90;99.90;;;;;;5015507;28;19929;-90
2023/12/02 14:41:57;;;;;;;;;;;1.80;99.90;;;;;;5013062;28;20006;-90
2023/12/02 14:44:27;;;;;;;;;;;1.80;99.90;;;;;;5009743;28;20447;-88
2023/12/02 14:47:05;;;;;;;;;;;1.80;99.90;;;;;;5007288;28;20170;-91
2023/12/02 14:49:36;;;;;;;;;;;1.70;99.90;;;;;;5002612;28;19920;-89